createdAt,value
2024-04-30T00:00:47.421Z,100.00
2024-04-30T00:03:40.640Z,100.00
2024-04-30T00:06:08.930Z,100.00
2024-04-30T00:08:39.700Z,100.00
2024-04-30T00:11:07.743Z,100.00
2024-04-30T00:13:35.575Z,100.00
2024-04-30T00:16:03.539Z,100.00
2024-04-30T00:18:31.392Z,100.00
2024-04-30T00:20:59.196Z,100.00
2024-04-30T00:23:26.938Z,100.00
2024-04-30T00:25:54.700Z,100.00
2024-04-30T00:28:24.388Z,100.00
2024-04-30T00:30:52.228Z,100.00
2024-04-30T00:33:20.072Z,100.00
2024-04-30T00:35:47.855Z,100.00
2024-04-30T00:38:15.601Z,100.00
2024-04-30T00:40:43.393Z,100.00
2024-04-30T00:43:11.288Z,100.00
2024-04-30T00:45:39.098Z,100.00
2024-04-30T00:48:07.248Z,100.00
2024-04-30T00:50:37.739Z,100.00
2024-04-30T00:53:05.984Z,100.00
2024-04-30T00:55:33.822Z,100.00
2024-04-30T00:58:01.826Z,100.00
2024-04-30T01:00:29.814Z,100.00
2024-04-30T01:02:57.683Z,100.00
2024-04-30T01:05:25.543Z,100.00
2024-04-30T01:07:53.265Z,100.00
2024-04-30T01:10:21.122Z,100.00
2024-04-30T01:12:50.283Z,100.00
2024-04-30T01:15:20.713Z,100.00
2024-04-30T01:17:49.029Z,100.00
2024-04-30T01:20:17.087Z,100.00
2024-04-30T01:22:45.039Z,100.00
2024-04-30T01:25:12.856Z,100.00
2024-04-30T01:27:40.716Z,100.00
2024-04-30T01:30:08.781Z,100.00
2024-04-30T01:32:36.636Z,100.00
2024-04-30T01:35:04.823Z,100.00
2024-04-30T01:37:32.816Z,100.00
2024-04-30T01:40:00.765Z,100.00
2024-04-30T01:42:28.659Z,100.00
2024-04-30T01:44:56.343Z,100.00
2024-04-30T01:47:24.178Z,100.00
2024-04-30T01:49:51.926Z,100.00
2024-04-30T01:52:19.686Z,100.00
2024-04-30T01:54:47.421Z,100.00
2024-04-30T01:57:15.260Z,100.00
2024-04-30T01:59:44.318Z,100.00
2024-04-30T02:02:12.658Z,100.00
2024-04-30T02:04:46.518Z,100.00
2024-04-30T02:07:17.465Z,100.00
2024-04-30T02:09:45.365Z,100.00
2024-04-30T02:12:15.004Z,100.00
2024-04-30T02:14:43.030Z,100.00
2024-04-30T02:17:10.870Z,100.00
2024-04-30T02:19:38.677Z,100.00
2024-04-30T02:22:06.461Z,100.00
2024-04-30T02:24:34.346Z,100.00
2024-04-30T02:27:02.226Z,100.00
2024-04-30T02:29:29.981Z,100.00
2024-04-30T02:32:16.509Z,100.00
2024-04-30T02:34:44.338Z,100.00
2024-04-30T02:37:12.199Z,100.00
2024-04-30T02:39:40.075Z,100.00
2024-04-30T02:42:07.864Z,100.00
2024-04-30T02:44:35.705Z,100.00
2024-04-30T02:47:04.475Z,100.00
2024-04-30T02:49:32.291Z,100.00
2024-04-30T02:52:00.212Z,100.00
2024-04-30T02:54:28.076Z,100.00
2024-04-30T02:56:55.871Z,100.00
2024-04-30T02:59:23.703Z,100.00
2024-04-30T03:01:51.670Z,100.00
2024-04-30T03:04:19.521Z,100.00
2024-04-30T03:06:47.430Z,100.00
2024-04-30T03:09:15.278Z,100.00
2024-04-30T03:11:46.042Z,100.00
2024-04-30T03:14:13.988Z,100.00
2024-04-30T03:16:44.583Z,100.00
2024-04-30T03:19:12.408Z,100.00
2024-04-30T03:21:40.348Z,100.00
2024-04-30T03:24:08.272Z,100.00
2024-04-30T03:26:45.032Z,100.00
2024-04-30T03:29:12.780Z,100.00
2024-04-30T03:31:41.119Z,100.00
2024-04-30T03:34:09.188Z,100.00
2024-04-30T03:36:37.009Z,100.00
2024-04-30T03:39:04.961Z,100.00
2024-04-30T03:41:32.830Z,100.00
2024-04-30T03:44:00.805Z,100.00
2024-04-30T03:46:28.646Z,100.00
2024-04-30T03:48:56.515Z,100.00
2024-04-30T03:51:24.677Z,100.00
2024-04-30T03:53:52.384Z,100.00
2024-04-30T03:56:20.274Z,100.00
2024-04-30T03:58:48.216Z,100.00
2024-04-30T04:01:16.130Z,100.00
2024-04-30T04:03:45.402Z,100.00
2024-04-30T04:06:16.204Z,100.00
2024-04-30T04:08:45.411Z,100.00
2024-04-30T04:11:31.976Z,100.00
2024-04-30T04:14:18.463Z,100.00
2024-04-30T04:16:46.624Z,100.00
2024-04-30T04:19:14.579Z,100.00
2024-04-30T04:21:42.593Z,100.00
2024-04-30T04:24:10.655Z,100.00
2024-04-30T04:26:38.462Z,100.00
2024-04-30T04:29:06.387Z,100.00
2024-04-30T04:31:34.261Z,100.00
2024-04-30T04:34:08.546Z,100.00
2024-04-30T04:36:37.743Z,100.00
2024-04-30T04:39:05.651Z,100.00
2024-04-30T04:41:33.494Z,100.00
2024-04-30T04:44:01.604Z,100.00
2024-04-30T04:46:29.637Z,100.00
2024-04-30T04:49:00.584Z,100.00
2024-04-30T04:51:30.035Z,100.00
2024-04-30T04:53:57.887Z,100.00
2024-04-30T04:56:25.841Z,100.00
2024-04-30T04:58:54.195Z,100.00
2024-04-30T05:01:22.222Z,100.00
2024-04-30T05:03:55.829Z,100.00
2024-04-30T05:06:23.730Z,100.00
2024-04-30T05:08:51.868Z,100.00
2024-04-30T05:11:19.657Z,100.00
2024-04-30T05:13:48.656Z,100.00
2024-04-30T05:16:16.500Z,100.00
2024-04-30T05:18:44.510Z,100.00
2024-04-30T05:21:13.958Z,100.00
2024-04-30T05:23:41.967Z,100.00
2024-04-30T05:26:09.725Z,100.00
2024-04-30T05:28:38.745Z,100.00
2024-04-30T05:31:10.158Z,98.63
2024-04-30T05:33:39.724Z,97.26
2024-04-30T05:36:07.569Z,95.62
2024-04-30T05:38:37.206Z,93.97
2024-04-30T05:41:06.028Z,89.46
2024-04-30T05:43:34.022Z,86.87
2024-04-30T05:46:02.633Z,88.90
2024-04-30T05:48:33.437Z,91.05
2024-04-30T05:51:04.230Z,90.35
2024-04-30T05:53:33.136Z,82.58
2024-04-30T05:56:00.944Z,82.20
2024-04-30T05:58:28.778Z,82.60
2024-04-30T06:00:56.736Z,82.30
2024-04-30T06:03:24.783Z,84.17
2024-04-30T06:05:52.905Z,86.34
2024-04-30T06:08:20.751Z,80.23
2024-04-30T06:10:48.636Z,80.07
2024-04-30T06:13:16.750Z,76.31
2024-04-30T06:15:44.566Z,78.63
2024-04-30T06:18:13.742Z,73.68
2024-04-30T06:20:41.830Z,70.56
2024-04-30T06:23:09.639Z,74.36
2024-04-30T06:25:38.136Z,68.34
2024-04-30T06:28:06.400Z,72.18
2024-04-30T06:30:34.406Z,71.76
2024-04-30T06:33:02.222Z,66.09
2024-04-30T06:35:29.976Z,67.62
2024-04-30T06:37:57.700Z,70.30
2024-04-30T06:40:27.361Z,69.77
2024-04-30T06:42:55.630Z,68.39
2024-04-30T06:45:24.412Z,66.26
2024-04-30T06:47:53.441Z,66.06
2024-04-30T06:50:23.234Z,61.97
2024-04-30T06:52:52.320Z,60.89
2024-04-30T06:55:20.142Z,55.90
2024-04-30T06:57:48.541Z,55.44
2024-04-30T07:00:16.588Z,56.23
2024-04-30T07:02:44.550Z,53.25
2024-04-30T07:05:12.601Z,55.49
2024-04-30T07:07:40.611Z,55.97
2024-04-30T07:10:08.925Z,54.85
2024-04-30T07:12:37.134Z,53.29
2024-04-30T07:15:05.568Z,52.90
2024-04-30T07:17:33.580Z,53.88
2024-04-30T07:20:01.579Z,53.97
2024-04-30T07:22:29.611Z,53.49
2024-04-30T07:24:58.903Z,53.71
2024-04-30T07:27:29.374Z,53.01
2024-04-30T07:29:57.742Z,54.30
2024-04-30T07:32:25.860Z,53.57
2024-04-30T07:34:54.274Z,52.37
2024-04-30T07:37:25.231Z,52.36
2024-04-30T07:39:54.921Z,53.32
2024-04-30T07:42:23.216Z,52.92
2024-04-30T07:44:51.312Z,53.61
2024-04-30T07:47:19.509Z,52.76
2024-04-30T07:49:47.523Z,51.81
2024-04-30T07:52:18.331Z,51.70
2024-04-30T07:54:47.639Z,49.65
2024-04-30T07:57:15.763Z,50.72
2024-04-30T07:59:44.912Z,48.91
2024-04-30T08:02:15.732Z,48.70
2024-04-30T08:04:47.100Z,47.78
2024-04-30T08:07:15.362Z,46.92
2024-04-30T08:09:46.342Z,46.48
2024-04-30T08:12:15.064Z,46.00
2024-04-30T08:14:43.026Z,45.99
2024-04-30T08:17:11.016Z,46.48
2024-04-30T08:19:38.940Z,46.34
2024-04-30T08:22:07.140Z,45.08
2024-04-30T08:24:35.643Z,43.82
2024-04-30T08:27:05.625Z,43.84
2024-04-30T08:29:33.701Z,42.64
2024-04-30T08:32:03.651Z,42.66
2024-04-30T08:34:31.561Z,41.14
2024-04-30T08:37:00.202Z,40.76
2024-04-30T08:39:28.080Z,41.53
2024-04-30T08:41:56.790Z,40.23
2024-04-30T08:44:26.553Z,39.84
2024-04-30T08:46:56.507Z,40.76
2024-04-30T08:49:37.315Z,41.04
2024-04-30T08:52:13.640Z,40.89
2024-04-30T08:54:43.123Z,39.44
2024-04-30T08:57:11.270Z,39.40
2024-04-30T08:59:39.529Z,39.21
2024-04-30T09:02:08.900Z,38.50
2024-04-30T09:04:39.931Z,37.82
2024-04-30T09:07:10.753Z,38.81
2024-04-30T09:09:38.837Z,38.03
2024-04-30T09:12:07.417Z,36.44
2024-04-30T09:14:44.869Z,35.90
2024-04-30T09:17:12.925Z,35.70
2024-04-30T09:19:41.016Z,35.41
2024-04-30T09:22:11.202Z,35.78
2024-04-30T09:24:49.004Z,34.78
2024-04-30T09:27:17.071Z,35.05
2024-04-30T09:29:45.652Z,35.15
2024-04-30T09:32:23.859Z,34.14
2024-04-30T09:34:54.229Z,35.53
2024-04-30T09:37:24.103Z,36.79
2024-04-30T09:39:54.628Z,36.79
2024-04-30T09:42:27.070Z,37.50
2024-04-30T09:45:00.152Z,37.15
2024-04-30T09:47:37.813Z,36.83
2024-04-30T09:50:08.857Z,35.88
2024-04-30T09:52:45.019Z,37.42
2024-04-30T09:55:14.655Z,37.30
2024-04-30T09:57:45.825Z,36.76
2024-04-30T10:00:23.441Z,36.67
2024-04-30T10:03:03.189Z,36.28
2024-04-30T10:05:36.479Z,36.01
2024-04-30T10:08:05.767Z,34.47
2024-04-30T10:10:35.246Z,34.43
2024-04-30T10:13:14.192Z,33.83
2024-04-30T10:15:43.708Z,34.75
2024-04-30T10:18:28.948Z,34.59
2024-04-30T10:21:12.355Z,33.77
2024-04-30T10:23:45.418Z,33.68
2024-04-30T10:26:17.888Z,32.45
2024-04-30T10:28:59.302Z,33.83
2024-04-30T10:31:32.621Z,33.74
2024-04-30T10:34:11.210Z,33.15
2024-04-30T10:36:51.944Z,33.26
2024-04-30T10:39:27.550Z,34.45
2024-04-30T10:42:01.633Z,34.14
2024-04-30T10:44:29.982Z,33.65
2024-04-30T10:47:00.614Z,32.50
2024-04-30T10:49:30.609Z,31.67
2024-04-30T10:52:02.112Z,31.97
2024-04-30T10:54:32.823Z,30.88
2024-04-30T10:57:02.153Z,31.21
2024-04-30T10:59:41.009Z,31.77
2024-04-30T11:02:13.626Z,31.35
2024-04-30T11:04:47.369Z,31.08
2024-04-30T11:07:22.404Z,31.17
2024-04-30T11:09:52.210Z,30.91
2024-04-30T11:12:22.142Z,31.06
2024-04-30T11:14:54.700Z,31.64
2024-04-30T11:17:27.417Z,29.20
2024-04-30T11:19:56.685Z,28.83
2024-04-30T11:22:24.626Z,28.96
2024-04-30T11:24:52.735Z,29.08
2024-04-30T11:27:24.942Z,29.64
2024-04-30T11:29:54.446Z,30.28
2024-04-30T11:32:22.599Z,30.44
2024-04-30T11:34:53.628Z,30.62
2024-04-30T11:37:25.785Z,30.06
2024-04-30T11:39:57.286Z,30.32
2024-04-30T11:42:34.337Z,30.68
2024-04-30T11:45:14.499Z,29.83
2024-04-30T11:47:42.565Z,29.69
2024-04-30T11:50:10.925Z,29.10
2024-04-30T11:52:40.859Z,29.49
2024-04-30T11:55:10.932Z,30.32
2024-04-30T11:57:40.891Z,30.60
2024-04-30T12:00:11.918Z,30.92
2024-04-30T12:02:44.513Z,30.98
2024-04-30T12:05:13.022Z,30.84
2024-04-30T12:07:41.267Z,31.16
2024-04-30T12:10:10.946Z,31.00
2024-04-30T12:12:44.187Z,30.72
2024-04-30T12:15:26.850Z,30.48
2024-04-30T12:17:55.292Z,29.63
2024-04-30T12:20:23.546Z,29.63
2024-04-30T12:22:51.900Z,29.87
2024-04-30T12:25:22.288Z,29.91
2024-04-30T12:27:52.216Z,29.83
2024-04-30T12:30:22.264Z,29.75
2024-04-30T12:32:54.714Z,29.74
2024-04-30T12:35:25.986Z,29.76
2024-04-30T12:38:00.977Z,29.65
2024-04-30T12:40:30.425Z,29.84
2024-04-30T12:43:02.733Z,29.12
2024-04-30T12:45:33.257Z,29.19
2024-04-30T12:48:02.490Z,29.96
2024-04-30T12:50:31.332Z,29.48
2024-04-30T12:53:06.813Z,29.52
2024-04-30T12:55:35.643Z,30.10
2024-04-30T12:58:09.454Z,30.51
2024-04-30T13:00:39.444Z,30.24
2024-04-30T13:03:09.447Z,30.10
2024-04-30T13:05:41.257Z,30.06
2024-04-30T13:08:19.051Z,30.19
2024-04-30T13:10:48.187Z,30.90
2024-04-30T13:13:18.521Z,30.80
2024-04-30T13:15:46.840Z,29.74
2024-04-30T13:18:16.763Z,29.63
2024-04-30T13:20:44.841Z,29.99
2024-04-30T13:23:12.989Z,30.13
2024-04-30T13:25:41.429Z,30.04
2024-04-30T13:28:09.775Z,30.01
2024-04-30T13:30:38.837Z,30.08
2024-04-30T13:33:15.208Z,29.89
2024-04-30T13:35:43.774Z,29.62
2024-04-30T13:38:12.501Z,30.53
2024-04-30T13:40:42.074Z,30.64
2024-04-30T13:43:10.220Z,30.17
2024-04-30T13:45:38.288Z,30.36
2024-04-30T13:48:09.166Z,30.92
2024-04-30T13:50:39.830Z,31.02
2024-04-30T13:53:09.314Z,31.68
2024-04-30T13:55:37.426Z,31.78
2024-04-30T13:58:05.830Z,31.80
2024-04-30T14:00:35.326Z,31.73
2024-04-30T14:03:05.642Z,31.31
2024-04-30T14:05:36.394Z,31.21
2024-04-30T14:08:07.288Z,31.15
2024-04-30T14:10:36.992Z,31.39
2024-04-30T14:13:06.647Z,30.89
2024-04-30T14:15:35.283Z,31.39
2024-04-30T14:18:07.220Z,31.23
2024-04-30T14:20:36.947Z,31.44
2024-04-30T14:23:05.182Z,31.76
2024-04-30T14:25:36.665Z,31.66
2024-04-30T14:28:06.516Z,31.74
2024-04-30T14:30:35.399Z,31.46
2024-04-30T14:33:03.801Z,31.41
2024-04-30T14:35:53.811Z,31.70
2024-04-30T14:38:25.460Z,31.67
2024-04-30T14:40:54.857Z,31.84
2024-04-30T14:43:25.326Z,32.02
2024-04-30T14:46:01.389Z,31.86
2024-04-30T14:48:32.175Z,31.67
2024-04-30T14:51:07.358Z,31.71
2024-04-30T14:53:36.059Z,31.82
2024-04-30T14:56:05.244Z,32.28
2024-04-30T14:58:35.743Z,32.17
2024-04-30T15:01:06.226Z,32.14
2024-04-30T15:03:35.029Z,32.59
2024-04-30T15:06:05.226Z,32.71
2024-04-30T15:08:40.502Z,32.67
2024-04-30T15:11:22.651Z,32.57
2024-04-30T15:13:51.631Z,33.04
2024-04-30T15:16:20.645Z,32.86
2024-04-30T15:18:49.292Z,32.98
2024-04-30T15:21:17.382Z,33.18
2024-04-30T15:23:45.941Z,33.45
2024-04-30T15:26:15.691Z,33.69
2024-04-30T15:28:44.045Z,33.07
2024-04-30T15:31:24.154Z,32.97
2024-04-30T15:33:52.768Z,32.86
2024-04-30T15:36:20.734Z,32.67
2024-04-30T15:38:48.756Z,33.09
2024-04-30T15:41:21.945Z,33.05
2024-04-30T15:43:50.840Z,33.36
2024-04-30T15:46:19.011Z,33.48
2024-04-30T15:48:50.975Z,33.21
2024-04-30T15:51:19.849Z,33.61
2024-04-30T15:53:48.088Z,33.70
2024-04-30T15:56:19.455Z,34.08
2024-04-30T15:58:48.844Z,34.05
2024-04-30T16:01:17.095Z,34.55
2024-04-30T16:03:47.519Z,34.42
2024-04-30T16:06:15.897Z,34.31
2024-04-30T16:08:44.200Z,34.31
2024-04-30T16:11:12.564Z,34.29
2024-04-30T16:13:41.722Z,34.66
2024-04-30T16:16:16.601Z,34.86
2024-04-30T16:18:48.429Z,35.08
2024-04-30T16:21:19.940Z,35.36
2024-04-30T16:23:51.783Z,34.99
2024-04-30T16:26:20.331Z,35.27
2024-04-30T16:28:48.602Z,34.98
2024-04-30T16:31:18.519Z,35.01
2024-04-30T16:33:46.749Z,34.79
2024-04-30T16:36:24.437Z,35.14
2024-04-30T16:38:55.138Z,35.34
2024-04-30T16:41:23.680Z,35.55
2024-04-30T16:43:55.027Z,36.17
2024-04-30T16:46:32.367Z,36.54
2024-04-30T16:49:06.842Z,36.89
2024-04-30T16:51:36.750Z,37.13
2024-04-30T16:54:06.358Z,37.30
2024-04-30T16:56:41.044Z,37.62
2024-04-30T16:59:12.921Z,37.62
2024-04-30T17:01:49.941Z,38.01
2024-04-30T17:04:23.151Z,38.24
2024-04-30T17:06:53.701Z,38.21
2024-04-30T17:09:27.039Z,38.27
2024-04-30T17:11:55.760Z,38.47
2024-04-30T17:14:24.023Z,38.66
2024-04-30T17:16:52.204Z,38.87
2024-04-30T17:19:20.922Z,39.19
2024-04-30T17:21:49.158Z,39.32
2024-04-30T17:24:17.294Z,39.43
2024-04-30T17:26:46.302Z,39.68
2024-04-30T17:29:15.854Z,39.99
2024-04-30T17:31:45.575Z,39.97
2024-04-30T17:34:16.105Z,40.39
2024-04-30T17:36:50.028Z,40.70
2024-04-30T17:39:19.895Z,40.95
2024-04-30T17:41:50.895Z,41.39
2024-04-30T17:44:21.140Z,41.20
2024-04-30T17:46:56.007Z,41.50
2024-04-30T17:49:24.553Z,42.02
2024-04-30T17:51:53.698Z,42.07
2024-04-30T17:54:24.341Z,42.49
2024-04-30T17:56:52.302Z,42.59
2024-04-30T17:59:20.635Z,43.26
2024-04-30T18:01:49.132Z,43.95
2024-04-30T18:04:18.337Z,44.30
2024-04-30T18:06:49.295Z,45.56
2024-04-30T18:09:19.136Z,45.75
2024-04-30T18:11:52.072Z,46.89
2024-04-30T18:14:26.462Z,48.35
2024-04-30T18:17:03.104Z,49.45
2024-04-30T18:19:42.277Z,48.71
2024-04-30T18:22:16.740Z,49.70
2024-04-30T18:24:46.108Z,50.10
2024-04-30T18:27:17.845Z,52.43
2024-04-30T18:29:58.655Z,53.44
2024-04-30T18:32:31.553Z,52.44
2024-04-30T18:35:26.818Z,52.68
2024-04-30T18:37:57.759Z,54.49
2024-04-30T18:40:32.172Z,54.64
2024-04-30T18:43:05.704Z,56.48
2024-04-30T18:45:37.215Z,55.65
2024-04-30T18:48:05.517Z,58.23
2024-04-30T18:50:36.537Z,57.70
2024-04-30T18:53:04.748Z,58.24
2024-04-30T18:55:46.226Z,56.74
2024-04-30T18:58:15.724Z,58.03
2024-04-30T19:00:46.544Z,57.46
2024-04-30T19:03:21.247Z,57.05
2024-04-30T19:05:52.274Z,57.99
2024-04-30T19:08:21.832Z,60.57
2024-04-30T19:10:50.413Z,61.31
2024-04-30T19:13:21.715Z,62.06
2024-04-30T19:15:54.760Z,61.25
2024-04-30T19:18:23.599Z,61.23
2024-04-30T19:20:51.515Z,62.65
2024-04-30T19:23:30.165Z,61.44
2024-04-30T19:26:02.698Z,62.40
2024-04-30T19:28:30.539Z,62.89
2024-04-30T19:30:58.722Z,59.69
2024-04-30T19:33:26.945Z,64.63
2024-04-30T19:35:54.929Z,63.63
2024-04-30T19:38:23.106Z,62.47
2024-04-30T19:40:51.214Z,64.76
2024-04-30T19:43:18.966Z,66.84
2024-04-30T19:45:47.422Z,68.13
2024-04-30T19:48:17.999Z,66.91
2024-04-30T19:50:47.455Z,65.92
2024-04-30T19:53:15.286Z,67.10
2024-04-30T19:55:43.200Z,64.87
2024-04-30T19:58:11.228Z,65.09
2024-04-30T20:00:39.794Z,68.62
2024-04-30T20:03:08.020Z,66.30
2024-04-30T20:05:36.986Z,68.06
2024-04-30T20:08:05.223Z,65.26
2024-04-30T20:10:33.224Z,64.39
2024-04-30T20:13:01.032Z,63.60
2024-04-30T20:15:29.691Z,63.27
2024-04-30T20:17:57.480Z,62.74
2024-04-30T20:20:25.381Z,62.80
2024-04-30T20:22:53.261Z,61.58
2024-04-30T20:25:23.587Z,60.53
2024-04-30T20:27:52.817Z,60.03
2024-04-30T20:30:20.859Z,59.46
2024-04-30T20:32:48.930Z,59.26
2024-04-30T20:35:21.475Z,59.08
2024-04-30T20:37:49.699Z,58.93
2024-04-30T20:40:17.653Z,58.74
2024-04-30T20:42:45.616Z,58.61
2024-04-30T20:45:13.523Z,58.43
2024-04-30T20:47:41.480Z,58.45
2024-04-30T20:50:09.576Z,58.39
2024-04-30T20:52:37.990Z,58.47
2024-04-30T20:55:05.941Z,58.47
2024-04-30T20:57:33.816Z,58.32
2024-04-30T21:00:02.672Z,58.06
2024-04-30T21:02:30.761Z,58.12
2024-04-30T21:04:58.547Z,58.19
2024-04-30T21:07:26.470Z,58.38
2024-04-30T21:09:54.486Z,58.31
2024-04-30T21:12:22.350Z,58.19
2024-04-30T21:14:50.110Z,58.97
2024-04-30T21:17:18.107Z,59.18
2024-04-30T21:19:46.060Z,58.79
2024-04-30T21:22:13.939Z,59.09
2024-04-30T21:24:41.913Z,59.38
2024-04-30T21:27:09.696Z,59.57
2024-04-30T21:29:40.456Z,59.61
2024-04-30T21:32:10.131Z,61.71
2024-04-30T21:34:38.032Z,61.61
2024-04-30T21:37:05.972Z,61.26
2024-04-30T21:39:34.117Z,61.20
2024-04-30T21:42:01.880Z,60.80
2024-04-30T21:44:30.146Z,60.72
2024-04-30T21:46:57.890Z,62.22
2024-04-30T21:49:25.847Z,63.47
2024-04-30T21:51:53.935Z,63.28
2024-04-30T21:54:21.843Z,63.35
2024-04-30T21:56:49.631Z,63.85
2024-04-30T21:59:17.401Z,63.58
2024-04-30T22:01:48.342Z,63.54
2024-04-30T22:04:16.322Z,64.35
2024-04-30T22:06:44.246Z,64.00
2024-04-30T22:09:12.077Z,64.72
2024-04-30T22:11:42.490Z,64.17
2024-04-30T22:14:10.478Z,64.05
2024-04-30T22:16:38.256Z,65.86
2024-04-30T22:19:06.062Z,64.73
2024-04-30T22:21:33.973Z,66.19
2024-04-30T22:24:08.442Z,68.57
2024-04-30T22:26:37.775Z,68.24
2024-04-30T22:29:05.476Z,69.07
2024-04-30T22:31:33.795Z,71.16
2024-04-30T22:34:01.680Z,70.01
2024-04-30T22:36:29.948Z,68.38
2024-04-30T22:38:57.699Z,70.42
2024-04-30T22:41:25.459Z,68.83
2024-04-30T22:43:53.330Z,76.24
2024-04-30T22:46:21.112Z,74.96
2024-04-30T22:48:49.199Z,76.56
2024-04-30T22:51:18.439Z,79.59
2024-04-30T22:53:50.747Z,75.38
2024-04-30T22:56:21.386Z,77.71
2024-04-30T22:58:49.161Z,77.15
2024-04-30T23:01:17.162Z,77.89
2024-04-30T23:03:45.205Z,79.51
2024-04-30T23:06:12.986Z,80.06
2024-04-30T23:08:40.746Z,77.26
2024-04-30T23:11:09.710Z,78.71
2024-04-30T23:13:37.544Z,81.75
2024-04-30T23:16:05.910Z,77.28
2024-04-30T23:18:33.925Z,77.14
2024-04-30T23:21:01.858Z,76.15
2024-04-30T23:23:30.542Z,81.07
2024-04-30T23:25:58.345Z,77.17
2024-04-30T23:28:26.154Z,79.76
2024-04-30T23:30:54.241Z,78.99
2024-04-30T23:33:22.107Z,77.39
2024-04-30T23:35:49.934Z,77.38
2024-04-30T23:38:18.036Z,78.65
2024-04-30T23:40:45.917Z,79.36
2024-04-30T23:43:13.741Z,81.69
2024-04-30T23:45:41.718Z,80.04
2024-04-30T23:48:09.546Z,78.11
2024-04-30T23:50:37.606Z,76.70
2024-04-30T23:53:05.368Z,78.28
2024-04-30T23:55:33.161Z,83.30
2024-04-30T23:58:00.960Z,85.14
